sensor_id;sensor_type;location;lat;lon;timestamp;P1;durP1;ratioP1;P2;durP2;ratioP2
51987;SDS011;38003;52.012;4.346;2024-02-26T00:02:25;6.77;;;3.67;;
51987;SDS011;38003;52.012;4.346;2024-02-26T00:04:53;3.63;;;3.10;;
51987;SDS011;38003;52.012;4.346;2024-02-26T00:07:21;4.77;;;3.50;;
51987;SDS011;38003;52.012;4.346;2024-02-26T00:09:49;3.93;;;3.33;;
51987;SDS011;38003;52.012;4.346;2024-02-26T00:12:17;5.17;;;3.53;;
51987;SDS011;38003;52.012;4.346;2024-02-26T00:14:46;4.00;;;3.60;;
51987;SDS011;38003;52.012;4.346;2024-02-26T00:17:17;3.67;;;3.30;;
51987;SDS011;38003;52.012;4.346;2024-02-26T00:19:45;4.17;;;3.70;;
51987;SDS011;38003;52.012;4.346;2024-02-26T00:22:13;3.50;;;3.20;;
51987;SDS011;38003;52.012;4.346;2024-02-26T00:24:42;4.03;;;3.63;;
51987;SDS011;38003;52.012;4.346;2024-02-26T00:27:10;5.43;;;3.70;;
51987;SDS011;38003;52.012;4.346;2024-02-26T00:29:38;3.73;;;3.37;;
51987;SDS011;38003;52.012;4.346;2024-02-26T00:32:07;3.50;;;3.20;;
51987;SDS011;38003;52.012;4.346;2024-02-26T00:34:36;4.90;;;3.53;;
51987;SDS011;38003;52.012;4.346;2024-02-26T00:37:04;4.00;;;3.40;;
51987;SDS011;38003;52.012;4.346;2024-02-26T00:39:33;4.77;;;3.20;;
51987;SDS011;38003;52.012;4.346;2024-02-26T00:42:01;3.70;;;3.13;;
51987;SDS011;38003;52.012;4.346;2024-02-26T00:44:30;3.80;;;3.27;;
51987;SDS011;38003;52.012;4.346;2024-02-26T00:46:58;3.93;;;3.27;;
51987;SDS011;38003;52.012;4.346;2024-02-26T00:49:26;3.63;;;3.33;;
51987;SDS011;38003;52.012;4.346;2024-02-26T00:51:57;4.10;;;3.57;;
51987;SDS011;38003;52.012;4.346;2024-02-26T00:54:25;4.13;;;3.50;;
51987;SDS011;38003;52.012;4.346;2024-02-26T00:56:53;4.53;;;3.83;;
51987;SDS011;38003;52.012;4.346;2024-02-26T00:59:22;4.50;;;3.20;;
51987;SDS011;38003;52.012;4.346;2024-02-26T01:01:50;3.37;;;3.07;;
51987;SDS011;38003;52.012;4.346;2024-02-26T01:04:18;4.43;;;3.53;;
51987;SDS011;38003;52.012;4.346;2024-02-26T01:06:46;4.63;;;3.57;;
51987;SDS011;38003;52.012;4.346;2024-02-26T01:09:16;4.93;;;3.77;;
51987;SDS011;38003;52.012;4.346;2024-02-26T01:11:45;4.23;;;3.83;;
51987;SDS011;38003;52.012;4.346;2024-02-26T01:14:13;3.97;;;3.67;;
51987;SDS011;38003;52.012;4.346;2024-02-26T01:16:42;4.83;;;3.47;;
51987;SDS011;38003;52.012;4.346;2024-02-26T01:19:10;4.40;;;3.60;;
51987;SDS011;38003;52.012;4.346;2024-02-26T01:21:38;4.10;;;3.60;;
51987;SDS011;38003;52.012;4.346;2024-02-26T01:24:07;3.93;;;3.53;;
51987;SDS011;38003;52.012;4.346;2024-02-26T01:26:36;4.00;;;3.70;;
51987;SDS011;38003;52.012;4.346;2024-02-26T01:29:05;4.20;;;3.63;;
51987;SDS011;38003;52.012;4.346;2024-02-26T01:31:33;6.00;;;4.10;;
51987;SDS011;38003;52.012;4.346;2024-02-26T01:34:01;4.33;;;3.73;;
51987;SDS011;38003;52.012;4.346;2024-02-26T01:36:30;4.70;;;4.17;;
51987;SDS011;38003;52.012;4.346;2024-02-26T01:38:58;4.67;;;4.07;;
51987;SDS011;38003;52.012;4.346;2024-02-26T01:41:26;4.60;;;3.90;;
51987;SDS011;38003;52.012;4.346;2024-02-26T01:43:56;4.30;;;4.00;;
51987;SDS011;38003;52.012;4.346;2024-02-26T01:46:24;4.07;;;3.70;;
51987;SDS011;38003;52.012;4.346;2024-02-26T01:48:53;4.33;;;3.93;;
51987;SDS011;38003;52.012;4.346;2024-02-26T01:51:21;4.80;;;4.40;;
51987;SDS011;38003;52.012;4.346;2024-02-26T01:53:50;4.80;;;4.40;;
51987;SDS011;38003;52.012;4.346;2024-02-26T01:56:19;4.80;;;4.20;;
51987;SDS011;38003;52.012;4.346;2024-02-26T01:58:48;4.67;;;4.27;;
51987;SDS011;38003;52.012;4.346;2024-02-26T02:01:18;5.30;;;4.90;;
51987;SDS011;38003;52.012;4.346;2024-02-26T02:03:46;5.43;;;4.47;;
51987;SDS011;38003;52.012;4.346;2024-02-26T02:06:15;4.93;;;4.20;;
51987;SDS011;38003;52.012;4.346;2024-02-26T02:08:43;4.70;;;4.30;;
51987;SDS011;38003;52.012;4.346;2024-02-26T02:11:12;5.27;;;4.77;;
51987;SDS011;38003;52.012;4.346;2024-02-26T02:13:41;5.20;;;4.63;;
51987;SDS011;38003;52.012;4.346;2024-02-26T02:16:09;5.50;;;5.00;;
51987;SDS011;38003;52.012;4.346;2024-02-26T02:18:39;5.77;;;5.00;;
51987;SDS011;38003;52.012;4.346;2024-02-26T02:21:09;5.50;;;5.00;;
51987;SDS011;38003;52.012;4.346;2024-02-26T02:23:37;6.50;;;5.40;;
51987;SDS011;38003;52.012;4.346;2024-02-26T02:26:06;5.70;;;5.10;;
51987;SDS011;38003;52.012;4.346;2024-02-26T02:28:35;5.60;;;5.10;;
51987;SDS011;38003;52.012;4.346;2024-02-26T02:31:03;5.57;;;5.03;;
51987;SDS011;38003;52.012;4.346;2024-02-26T02:33:31;7.90;;;6.10;;
51987;SDS011;38003;52.012;4.346;2024-02-26T02:36:00;6.37;;;5.20;;
51987;SDS011;38003;52.012;4.346;2024-02-26T02:38:30;5.37;;;4.87;;
51987;SDS011;38003;52.012;4.346;2024-02-26T02:41:00;6.13;;;5.53;;
51987;SDS011;38003;52.012;4.346;2024-02-26T02:43:28;8.30;;;6.03;;
51987;SDS011;38003;52.012;4.346;2024-02-26T02:45:56;6.17;;;5.57;;
51987;SDS011;38003;52.012;4.346;2024-02-26T02:48:24;6.20;;;5.60;;
51987;SDS011;38003;52.012;4.346;2024-02-26T02:50:53;6.90;;;6.20;;
51987;SDS011;38003;52.012;4.346;2024-02-26T02:53:21;6.93;;;5.80;;
51987;SDS011;38003;52.012;4.346;2024-02-26T02:55:51;6.70;;;6.10;;
51987;SDS011;38003;52.012;4.346;2024-02-26T02:58:19;8.03;;;6.23;;
51987;SDS011;38003;52.012;4.346;2024-02-26T03:00:47;7.40;;;6.10;;
51987;SDS011;38003;52.012;4.346;2024-02-26T03:03:16;6.50;;;5.90;;
51987;SDS011;38003;52.012;4.346;2024-02-26T03:05:44;7.87;;;6.20;;
51987;SDS011;38003;52.012;4.346;2024-02-26T03:08:12;7.67;;;5.93;;
51987;SDS011;38003;52.012;4.346;2024-02-26T03:10:41;7.57;;;5.80;;
51987;SDS011;38003;52.012;4.346;2024-02-26T03:13:11;6.17;;;5.57;;
51987;SDS011;38003;52.012;4.346;2024-02-26T03:15:39;8.27;;;6.07;;
51987;SDS011;38003;52.012;4.346;2024-02-26T03:18:08;7.73;;;5.30;;
51987;SDS011;38003;52.012;4.346;2024-02-26T03:20:37;6.10;;;5.50;;
51987;SDS011;38003;52.012;4.346;2024-02-26T03:23:05;7.20;;;5.60;;
51987;SDS011;38003;52.012;4.346;2024-02-26T03:25:36;5.90;;;5.30;;
51987;SDS011;38003;52.012;4.346;2024-02-26T03:28:04;8.37;;;5.53;;
51987;SDS011;38003;52.012;4.346;2024-02-26T03:30:34;6.00;;;5.40;;
51987;SDS011;38003;52.012;4.346;2024-02-26T03:33:02;7.37;;;5.90;;
51987;SDS011;38003;52.012;4.346;2024-02-26T03:35:31;6.40;;;5.43;;
51987;SDS011;38003;52.012;4.346;2024-02-26T03:37:58;7.03;;;5.40;;
51987;SDS011;38003;52.012;4.346;2024-02-26T03:40:26;6.20;;;5.53;;
51987;SDS011;38003;52.012;4.346;2024-02-26T03:42:54;5.93;;;5.33;;
51987;SDS011;38003;52.012;4.346;2024-02-26T03:45:23;6.13;;;5.50;;
51987;SDS011;38003;52.012;4.346;2024-02-26T03:47:53;7.00;;;5.90;;
51987;SDS011;38003;52.012;4.346;2024-02-26T03:50:22;6.17;;;5.53;;
51987;SDS011;38003;52.012;4.346;2024-02-26T03:52:50;6.50;;;5.13;;
51987;SDS011;38003;52.012;4.346;2024-02-26T03:55:18;6.67;;;6.00;;
51987;SDS011;38003;52.012;4.346;2024-02-26T03:57:51;8.23;;;6.20;;
51987;SDS011;38003;52.012;4.346;2024-02-26T04:00:19;6.57;;;5.90;;
51987;SDS011;38003;52.012;4.346;2024-02-26T04:02:48;6.77;;;5.87;;
51987;SDS011;38003;52.012;4.346;2024-02-26T04:05:18;7.03;;;5.97;;
51987;SDS011;38003;52.012;4.346;2024-02-26T04:07:47;7.40;;;6.60;;
51987;SDS011;38003;52.012;4.346;2024-02-26T04:10:15;8.17;;;6.57;;
51987;SDS011;38003;52.012;4.346;2024-02-26T04:12:43;7.33;;;6.40;;
51987;SDS011;38003;52.012;4.346;2024-02-26T04:15:12;7.60;;;6.53;;
51987;SDS011;38003;52.012;4.346;2024-02-26T04:17:40;8.13;;;7.07;;
51987;SDS011;38003;52.012;4.346;2024-02-26T04:20:12;7.30;;;6.50;;
51987;SDS011;38003;52.012;4.346;2024-02-26T04:22:43;7.93;;;7.13;;
51987;SDS011;38003;52.012;4.346;2024-02-26T04:25:11;7.60;;;6.70;;
51987;SDS011;38003;52.012;4.346;2024-02-26T04:27:40;10.10;;;6.80;;
51987;SDS011;38003;52.012;4.346;2024-02-26T04:30:08;8.57;;;7.57;;
51987;SDS011;38003;52.012;4.346;2024-02-26T04:32:37;8.47;;;7.57;;
51987;SDS011;38003;52.012;4.346;2024-02-26T04:35:05;8.73;;;7.67;;
51987;SDS011;38003;52.012;4.346;2024-02-26T04:37:34;9.00;;;7.73;;
51987;SDS011;38003;52.012;4.346;2024-02-26T04:40:04;8.60;;;6.67;;
51987;SDS011;38003;52.012;4.346;2024-02-26T04:42:34;8.30;;;7.40;;
51987;SDS011;38003;52.012;4.346;2024-02-26T04:45:02;8.47;;;7.50;;
51987;SDS011;38003;52.012;4.346;2024-02-26T04:47:30;10.40;;;7.23;;
51987;SDS011;38003;52.012;4.346;2024-02-26T04:49:59;12.07;;;7.87;;
51987;SDS011;38003;52.012;4.346;2024-02-26T04:52:27;9.20;;;7.70;;
51987;SDS011;38003;52.012;4.346;2024-02-26T04:54:55;8.93;;;7.40;;
51987;SDS011;38003;52.012;4.346;2024-02-26T04:57:27;9.47;;;7.53;;
51987;SDS011;38003;52.012;4.346;2024-02-26T04:59:55;8.50;;;7.60;;
51987;SDS011;38003;52.012;4.346;2024-02-26T05:02:24;9.53;;;7.57;;
51987;SDS011;38003;52.012;4.346;2024-02-26T05:04:52;8.60;;;7.70;;
51987;SDS011;38003;52.012;4.346;2024-02-26T05:07:21;8.83;;;7.87;;
51987;SDS011;38003;52.012;4.346;2024-02-26T05:09:49;9.90;;;8.73;;
51987;SDS011;38003;52.012;4.346;2024-02-26T05:12:17;10.63;;;8.60;;
51987;SDS011;38003;52.012;4.346;2024-02-26T05:14:47;8.97;;;8.03;;
51987;SDS011;38003;52.012;4.346;2024-02-26T05:17:15;10.80;;;8.10;;
51987;SDS011;38003;52.012;4.346;2024-02-26T05:19:44;10.67;;;8.47;;
51987;SDS011;38003;52.012;4.346;2024-02-26T05:22:12;12.50;;;8.90;;
51987;SDS011;38003;52.012;4.346;2024-02-26T05:24:40;8.90;;;8.00;;
51987;SDS011;38003;52.012;4.346;2024-02-26T05:27:08;10.83;;;8.87;;
51987;SDS011;38003;52.012;4.346;2024-02-26T05:29:38;9.87;;;8.83;;
51987;SDS011;38003;52.012;4.346;2024-02-26T05:32:07;9.63;;;8.30;;
51987;SDS011;38003;52.012;4.346;2024-02-26T05:34:36;10.47;;;9.03;;
51987;SDS011;38003;52.012;4.346;2024-02-26T05:37:04;10.07;;;8.30;;
51987;SDS011;38003;52.012;4.346;2024-02-26T05:39:33;11.90;;;9.13;;
51987;SDS011;38003;52.012;4.346;2024-02-26T05:42:01;9.30;;;8.30;;
51987;SDS011;38003;52.012;4.346;2024-02-26T05:44:29;11.53;;;9.07;;
51987;SDS011;38003;52.012;4.346;2024-02-26T05:46:57;12.43;;;8.63;;
51987;SDS011;38003;52.012;4.346;2024-02-26T05:49:29;11.57;;;8.63;;
51987;SDS011;38003;52.012;4.346;2024-02-26T05:51:58;10.43;;;8.60;;
51987;SDS011;38003;52.012;4.346;2024-02-26T05:54:27;10.77;;;9.67;;
51987;SDS011;38003;52.012;4.346;2024-02-26T05:56:55;10.23;;;8.87;;
51987;SDS011;38003;52.012;4.346;2024-02-26T05:59:23;10.20;;;8.63;;
51987;SDS011;38003;52.012;4.346;2024-02-26T06:01:52;12.30;;;9.33;;
51987;SDS011;38003;52.012;4.346;2024-02-26T06:04:20;12.27;;;9.90;;
51987;SDS011;38003;52.012;4.346;2024-02-26T06:06:50;11.83;;;9.63;;
51987;SDS011;38003;52.012;4.346;2024-02-26T06:09:18;11.67;;;9.57;;
51987;SDS011;38003;52.012;4.346;2024-02-26T06:11:46;13.20;;;10.77;;
51987;SDS011;38003;52.012;4.346;2024-02-26T06:14:15;13.07;;;10.53;;
51987;SDS011;38003;52.012;4.346;2024-02-26T06:16:44;14.17;;;10.97;;
51987;SDS011;38003;52.012;4.346;2024-02-26T06:19:12;12.87;;;11.13;;
51987;SDS011;38003;52.012;4.346;2024-02-26T06:21:41;14.00;;;11.23;;
51987;SDS011;38003;52.012;4.346;2024-02-26T06:24:10;13.73;;;10.87;;
51987;SDS011;38003;52.012;4.346;2024-02-26T06:26:39;14.53;;;11.17;;
51987;SDS011;38003;52.012;4.346;2024-02-26T06:29:07;14.00;;;11.67;;
51987;SDS011;38003;52.012;4.346;2024-02-26T06:31:35;15.40;;;12.33;;
51987;SDS011;38003;52.012;4.346;2024-02-26T06:34:03;14.53;;;11.63;;
51987;SDS011;38003;52.012;4.346;2024-02-26T06:36:32;14.43;;;11.93;;
51987;SDS011;38003;52.012;4.346;2024-02-26T06:39:01;15.70;;;12.53;;
51987;SDS011;38003;52.012;4.346;2024-02-26T06:41:33;15.27;;;13.03;;
51987;SDS011;38003;52.012;4.346;2024-02-26T06:44:02;16.97;;;13.90;;
51987;SDS011;38003;52.012;4.346;2024-02-26T06:46:31;16.87;;;13.77;;
51987;SDS011;38003;52.012;4.346;2024-02-26T06:48:59;16.83;;;14.00;;
51987;SDS011;38003;52.012;4.346;2024-02-26T06:51:27;16.53;;;13.93;;
51987;SDS011;38003;52.012;4.346;2024-02-26T06:53:56;19.23;;;14.60;;
51987;SDS011;38003;52.012;4.346;2024-02-26T06:56:24;23.80;;;15.90;;
51987;SDS011;38003;52.012;4.346;2024-02-26T06:58:54;18.17;;;15.83;;
51987;SDS011;38003;52.012;4.346;2024-02-26T07:01:22;16.87;;;15.13;;
51987;SDS011;38003;52.012;4.346;2024-02-26T07:03:50;19.17;;;17.13;;
51987;SDS011;38003;52.012;4.346;2024-02-26T07:06:19;19.17;;;16.87;;
51987;SDS011;38003;52.012;4.346;2024-02-26T07:08:47;18.77;;;16.87;;
51987;SDS011;38003;52.012;4.346;2024-02-26T07:11:15;20.33;;;17.87;;
51987;SDS011;38003;52.012;4.346;2024-02-26T07:13:45;20.80;;;18.80;;
51987;SDS011;38003;52.012;4.346;2024-02-26T07:16:14;20.43;;;18.43;;
51987;SDS011;38003;52.012;4.346;2024-02-26T07:18:43;20.53;;;18.53;;
51987;SDS011;38003;52.012;4.346;2024-02-26T07:21:11;23.33;;;21.17;;
51987;SDS011;38003;52.012;4.346;2024-02-26T07:23:40;20.27;;;18.40;;
51987;SDS011;38003;52.012;4.346;2024-02-26T07:26:08;23.80;;;21.53;;
51987;SDS011;38003;52.012;4.346;2024-02-26T07:28:38;23.47;;;21.37;;
51987;SDS011;38003;52.012;4.346;2024-02-26T07:31:06;23.40;;;21.17;;
51987;SDS011;38003;52.012;4.346;2024-02-26T07:33:36;18.97;;;17.07;;
51987;SDS011;38003;52.012;4.346;2024-02-26T07:36:04;20.67;;;18.17;;
51987;SDS011;38003;52.012;4.346;2024-02-26T07:38:32;19.10;;;17.10;;
51987;SDS011;38003;52.012;4.346;2024-02-26T07:41:09;19.37;;;17.47;;
51987;SDS011;38003;52.012;4.346;2024-02-26T07:43:37;18.03;;;16.13;;
51987;SDS011;38003;52.012;4.346;2024-02-26T07:46:07;19.17;;;17.17;;
51987;SDS011;38003;52.012;4.346;2024-02-26T07:48:36;19.20;;;17.40;;
51987;SDS011;38003;52.012;4.346;2024-02-26T07:51:05;18.63;;;16.90;;
51987;SDS011;38003;52.012;4.346;2024-02-26T07:53:33;16.93;;;15.33;;
51987;SDS011;38003;52.012;4.346;2024-02-26T07:56:01;16.40;;;14.83;;
51987;SDS011;38003;52.012;4.346;2024-02-26T07:58:29;15.77;;;14.17;;
51987;SDS011;38003;52.012;4.346;2024-02-26T08:00:58;16.67;;;15.07;;
51987;SDS011;38003;52.012;4.346;2024-02-26T08:03:27;17.07;;;15.37;;
51987;SDS011;38003;52.012;4.346;2024-02-26T08:05:57;14.93;;;13.57;;
51987;SDS011;38003;52.012;4.346;2024-02-26T08:08:25;21.10;;;14.63;;
51987;SDS011;38003;52.012;4.346;2024-02-26T08:10:53;15.07;;;13.67;;
51987;SDS011;38003;52.012;4.346;2024-02-26T08:13:21;13.73;;;12.43;;
51987;SDS011;38003;52.012;4.346;2024-02-26T08:15:50;13.93;;;12.63;;
51987;SDS011;38003;52.012;4.346;2024-02-26T08:18:18;12.80;;;11.50;;
51987;SDS011;38003;52.012;4.346;2024-02-26T08:20:47;20.80;;;13.90;;
51987;SDS011;38003;52.012;4.346;2024-02-26T08:23:17;22.53;;;16.73;;
51987;SDS011;38003;52.012;4.346;2024-02-26T08:25:45;41.87;;;20.20;;
51987;SDS011;38003;52.012;4.346;2024-02-26T08:28:14;16.03;;;14.43;;
51987;SDS011;38003;52.012;4.346;2024-02-26T08:30:44;20.50;;;13.17;;
51987;SDS011;38003;52.012;4.346;2024-02-26T08:33:12;13.83;;;9.90;;
51987;SDS011;38003;52.012;4.346;2024-02-26T08:35:40;9.37;;;8.33;;
51987;SDS011;38003;52.012;4.346;2024-02-26T08:38:09;8.50;;;7.67;;
51987;SDS011;38003;52.012;4.346;2024-02-26T08:40:38;13.07;;;9.30;;
51987;SDS011;38003;52.012;4.346;2024-02-26T08:43:07;8.70;;;7.90;;
51987;SDS011;38003;52.012;4.346;2024-02-26T08:45:36;8.87;;;7.97;;
51987;SDS011;38003;52.012;4.346;2024-02-26T08:48:04;8.07;;;7.27;;
51987;SDS011;38003;52.012;4.346;2024-02-26T08:50:34;9.00;;;8.13;;
51987;SDS011;38003;52.012;4.346;2024-02-26T08:53:02;12.07;;;9.23;;
51987;SDS011;38003;52.012;4.346;2024-02-26T08:55:33;8.83;;;7.50;;
51987;SDS011;38003;52.012;4.346;2024-02-26T08:58:02;8.70;;;7.20;;
51987;SDS011;38003;52.012;4.346;2024-02-26T09:00:31;7.87;;;7.07;;
51987;SDS011;38003;52.012;4.346;2024-02-26T09:02:59;9.63;;;7.53;;
51987;SDS011;38003;52.012;4.346;2024-02-26T09:05:31;21.00;;;8.40;;
51987;SDS011;38003;52.012;4.346;2024-02-26T09:07:59;17.57;;;9.37;;
51987;SDS011;38003;52.012;4.346;2024-02-26T09:10:27;24.60;;;8.63;;
51987;SDS011;38003;52.012;4.346;2024-02-26T09:12:56;7.67;;;6.87;;
51987;SDS011;38003;52.012;4.346;2024-02-26T09:15:25;7.50;;;6.80;;
51987;SDS011;38003;52.012;4.346;2024-02-26T09:17:54;7.23;;;6.10;;
51987;SDS011;38003;52.012;4.346;2024-02-26T09:20:22;7.77;;;6.00;;
51987;SDS011;38003;52.012;4.346;2024-02-26T09:22:50;6.63;;;5.83;;
51987;SDS011;38003;52.012;4.346;2024-02-26T09:25:19;6.93;;;5.93;;
51987;SDS011;38003;52.012;4.346;2024-02-26T09:27:48;32.40;;;8.50;;
51987;SDS011;38003;52.012;4.346;2024-02-26T09:30:16;25.63;;;8.03;;
51987;SDS011;38003;52.012;4.346;2024-02-26T09:32:47;5.90;;;5.30;;
51987;SDS011;38003;52.012;4.346;2024-02-26T09:35:15;12.77;;;6.37;;
51987;SDS011;38003;52.012;4.346;2024-02-26T09:37:44;11.93;;;6.40;;
51987;SDS011;38003;52.012;4.346;2024-02-26T09:40:12;26.47;;;7.57;;
51987;SDS011;38003;52.012;4.346;2024-02-26T09:42:43;8.90;;;5.93;;
51987;SDS011;38003;52.012;4.346;2024-02-26T09:45:12;7.00;;;5.47;;
51987;SDS011;38003;52.012;4.346;2024-02-26T09:47:47;8.47;;;5.67;;
51987;SDS011;38003;52.012;4.346;2024-02-26T09:50:16;6.03;;;5.43;;
51987;SDS011;38003;52.012;4.346;2024-02-26T09:52:48;7.63;;;5.93;;
51987;SDS011;38003;52.012;4.346;2024-02-26T09:55:17;9.10;;;5.40;;
51987;SDS011;38003;52.012;4.346;2024-02-26T09:57:46;10.07;;;7.23;;
51987;SDS011;38003;52.012;4.346;2024-02-26T10:00:15;7.67;;;6.97;;
51987;SDS011;38003;52.012;4.346;2024-02-26T10:02:47;6.97;;;6.20;;
51987;SDS011;38003;52.012;4.346;2024-02-26T10:05:16;18.17;;;8.63;;
51987;SDS011;38003;52.012;4.346;2024-02-26T10:07:45;28.00;;;10.03;;
51987;SDS011;38003;52.012;4.346;2024-02-26T10:10:14;27.10;;;11.17;;
51987;SDS011;38003;52.012;4.346;2024-02-26T10:12:43;10.20;;;9.40;;
51987;SDS011;38003;52.012;4.346;2024-02-26T10:15:11;10.43;;;9.53;;
51987;SDS011;38003;52.012;4.346;2024-02-26T10:17:39;9.77;;;8.97;;
51987;SDS011;38003;52.012;4.346;2024-02-26T10:20:13;9.97;;;7.10;;
51987;SDS011;38003;52.012;4.346;2024-02-26T10:22:44;16.23;;;9.03;;
51987;SDS011;38003;52.012;4.346;2024-02-26T10:25:12;10.07;;;8.27;;
51987;SDS011;38003;52.012;4.346;2024-02-26T10:27:41;11.20;;;9.63;;
51987;SDS011;38003;52.012;4.346;2024-02-26T10:30:19;11.30;;;10.47;;
51987;SDS011;38003;52.012;4.346;2024-02-26T10:32:48;12.60;;;11.70;;
51987;SDS011;38003;52.012;4.346;2024-02-26T10:35:19;10.83;;;9.93;;
51987;SDS011;38003;52.012;4.346;2024-02-26T10:37:48;11.70;;;10.53;;
51987;SDS011;38003;52.012;4.346;2024-02-26T10:40:17;29.70;;;9.67;;
51987;SDS011;38003;52.012;4.346;2024-02-26T10:42:45;12.87;;;8.07;;
51987;SDS011;38003;52.012;4.346;2024-02-26T10:45:13;22.33;;;9.60;;
51987;SDS011;38003;52.012;4.346;2024-02-26T10:47:42;7.20;;;6.50;;
51987;SDS011;38003;52.012;4.346;2024-02-26T10:50:10;7.00;;;6.33;;
51987;SDS011;38003;52.012;4.346;2024-02-26T10:52:42;7.17;;;6.57;;
51987;SDS011;38003;52.012;4.346;2024-02-26T10:55:12;7.97;;;5.60;;
51987;SDS011;38003;52.012;4.346;2024-02-26T10:57:44;7.87;;;4.80;;
51987;SDS011;38003;52.012;4.346;2024-02-26T11:00:14;7.33;;;5.63;;
51987;SDS011;38003;52.012;4.346;2024-02-26T11:02:43;11.83;;;5.40;;
51987;SDS011;38003;52.012;4.346;2024-02-26T11:05:12;16.13;;;5.60;;
51987;SDS011;38003;52.012;4.346;2024-02-26T11:07:43;22.33;;;7.50;;
51987;SDS011;38003;52.012;4.346;2024-02-26T11:10:13;6.17;;;4.60;;
51987;SDS011;38003;52.012;4.346;2024-02-26T11:12:41;5.60;;;5.00;;
51987;SDS011;38003;52.012;4.346;2024-02-26T11:15:10;6.63;;;5.60;;
51987;SDS011;38003;52.012;4.346;2024-02-26T11:17:38;7.00;;;6.10;;
51987;SDS011;38003;52.012;4.346;2024-02-26T11:20:09;6.50;;;5.87;;
51987;SDS011;38003;52.012;4.346;2024-02-26T11:22:39;8.53;;;6.27;;
51987;SDS011;38003;52.012;4.346;2024-02-26T11:25:09;7.33;;;6.00;;
51987;SDS011;38003;52.012;4.346;2024-02-26T11:27:39;9.20;;;6.10;;
51987;SDS011;38003;52.012;4.346;2024-02-26T11:30:10;7.57;;;6.03;;
51987;SDS011;38003;52.012;4.346;2024-02-26T11:32:40;7.63;;;6.73;;
51987;SDS011;38003;52.012;4.346;2024-02-26T11:35:12;9.03;;;8.13;;
51987;SDS011;38003;52.012;4.346;2024-02-26T11:37:50;8.77;;;8.00;;
51987;SDS011;38003;52.012;4.346;2024-02-26T11:40:20;8.03;;;7.37;;
51987;SDS011;38003;52.012;4.346;2024-02-26T11:42:48;8.43;;;7.73;;
51987;SDS011;38003;52.012;4.346;2024-02-26T11:48:05;8.87;;;8.07;;
51987;SDS011;38003;52.012;4.346;2024-02-26T11:50:40;9.40;;;8.70;;
51987;SDS011;38003;52.012;4.346;2024-02-26T11:53:21;9.47;;;8.77;;
51987;SDS011;38003;52.012;4.346;2024-02-26T11:58:34;10.17;;;9.47;;
51987;SDS011;38003;52.012;4.346;2024-02-26T12:01:03;14.53;;;13.53;;
51987;SDS011;38003;52.012;4.346;2024-02-26T12:03:31;10.70;;;10.00;;
51987;SDS011;38003;52.012;4.346;2024-02-26T12:05:59;16.03;;;15.03;;
51987;SDS011;38003;52.012;4.346;2024-02-26T12:08:28;23.17;;;21.70;;
51987;SDS011;38003;52.012;4.346;2024-02-26T12:10:56;21.63;;;20.37;;
51987;SDS011;38003;52.012;4.346;2024-02-26T12:13:29;20.57;;;19.07;;
51987;SDS011;38003;52.012;4.346;2024-02-26T12:15:59;12.27;;;11.47;;
51987;SDS011;38003;52.012;4.346;2024-02-26T12:18:27;12.30;;;11.40;;
51987;SDS011;38003;52.012;4.346;2024-02-26T12:21:00;14.50;;;13.57;;
51987;SDS011;38003;52.012;4.346;2024-02-26T12:23:28;14.30;;;13.40;;
51987;SDS011;38003;52.012;4.346;2024-02-26T12:25:58;12.83;;;12.03;;
51987;SDS011;38003;52.012;4.346;2024-02-26T12:28:27;7.80;;;7.20;;
51987;SDS011;38003;52.012;4.346;2024-02-26T12:30:56;5.77;;;5.27;;
51987;SDS011;38003;52.012;4.346;2024-02-26T12:33:27;6.57;;;5.97;;
51987;SDS011;38003;52.012;4.346;2024-02-26T12:35:56;5.90;;;5.00;;
51987;SDS011;38003;52.012;4.346;2024-02-26T12:38:25;5.77;;;5.17;;
51987;SDS011;38003;52.012;4.346;2024-02-26T12:40:54;6.27;;;4.97;;
51987;SDS011;38003;52.012;4.346;2024-02-26T12:43:23;5.90;;;5.30;;
51987;SDS011;38003;52.012;4.346;2024-02-26T12:45:51;5.37;;;4.87;;
51987;SDS011;38003;52.012;4.346;2024-02-26T12:48:19;6.47;;;5.20;;
51987;SDS011;38003;52.012;4.346;2024-02-26T12:50:49;4.73;;;4.33;;
51987;SDS011;38003;52.012;4.346;2024-02-26T12:53:17;7.20;;;4.17;;
51987;SDS011;38003;52.012;4.346;2024-02-26T12:55:45;7.10;;;5.20;;
51987;SDS011;38003;52.012;4.346;2024-02-26T12:58:14;4.80;;;4.40;;
51987;SDS011;38003;52.012;4.346;2024-02-26T13:00:42;6.43;;;4.00;;
51987;SDS011;38003;52.012;4.346;2024-02-26T13:03:11;4.73;;;4.20;;
51987;SDS011;38003;52.012;4.346;2024-02-26T13:05:39;3.53;;;3.23;;
51987;SDS011;38003;52.012;4.346;2024-02-26T13:08:09;4.47;;;3.60;;
51987;SDS011;38003;52.012;4.346;2024-02-26T13:10:37;4.33;;;3.13;;
51987;SDS011;38003;52.012;4.346;2024-02-26T13:13:05;5.30;;;3.50;;
51987;SDS011;38003;52.012;4.346;2024-02-26T13:15:34;4.93;;;3.30;;
51987;SDS011;38003;52.012;4.346;2024-02-26T13:18:08;3.50;;;3.17;;
51987;SDS011;38003;52.012;4.346;2024-02-26T13:20:37;4.70;;;3.47;;
51987;SDS011;38003;52.012;4.346;2024-02-26T13:23:06;10.50;;;3.57;;
51987;SDS011;38003;52.012;4.346;2024-02-26T13:25:36;3.70;;;3.13;;
51987;SDS011;38003;52.012;4.346;2024-02-26T13:28:12;4.77;;;2.93;;
51987;SDS011;38003;52.012;4.346;2024-02-26T13:30:42;5.53;;;2.87;;
51987;SDS011;38003;52.012;4.346;2024-02-26T13:33:18;5.17;;;3.27;;
51987;SDS011;38003;52.012;4.346;2024-02-26T13:35:47;5.47;;;3.37;;
51987;SDS011;38003;52.012;4.346;2024-02-26T13:38:15;3.73;;;3.30;;
51987;SDS011;38003;52.012;4.346;2024-02-26T13:40:45;6.13;;;3.00;;
51987;SDS011;38003;52.012;4.346;2024-02-26T13:43:13;4.00;;;3.10;;
51987;SDS011;38003;52.012;4.346;2024-02-26T13:45:41;4.27;;;2.77;;
51987;SDS011;38003;52.012;4.346;2024-02-26T13:48:11;10.60;;;3.67;;
51987;SDS011;38003;52.012;4.346;2024-02-26T13:50:40;4.60;;;3.10;;
51987;SDS011;38003;52.012;4.346;2024-02-26T13:53:12;3.47;;;2.77;;
51987;SDS011;38003;52.012;4.346;2024-02-26T13:55:41;4.63;;;3.00;;
51987;SDS011;38003;52.012;4.346;2024-02-26T13:58:12;6.57;;;2.90;;
51987;SDS011;38003;52.012;4.346;2024-02-26T14:00:41;4.80;;;2.93;;
51987;SDS011;38003;52.012;4.346;2024-02-26T14:03:10;3.83;;;2.60;;
51987;SDS011;38003;52.012;4.346;2024-02-26T14:05:38;2.70;;;2.17;;
51987;SDS011;38003;52.012;4.346;2024-02-26T14:08:12;4.27;;;2.77;;
51987;SDS011;38003;52.012;4.346;2024-02-26T14:10:40;2.67;;;2.40;;
51987;SDS011;38003;52.012;4.346;2024-02-26T14:13:09;4.43;;;2.70;;
51987;SDS011;38003;52.012;4.346;2024-02-26T14:15:38;4.17;;;2.87;;
51987;SDS011;38003;52.012;4.346;2024-02-26T14:18:06;21.60;;;3.57;;
51987;SDS011;38003;52.012;4.346;2024-02-26T14:20:35;2.73;;;2.23;;
51987;SDS011;38003;52.012;4.346;2024-02-26T14:23:03;2.77;;;2.33;;
51987;SDS011;38003;52.012;4.346;2024-02-26T14:25:33;2.80;;;2.43;;
51987;SDS011;38003;52.012;4.346;2024-02-26T14:28:01;3.13;;;2.10;;
51987;SDS011;38003;52.012;4.346;2024-02-26T14:30:29;2.97;;;2.53;;
51987;SDS011;38003;52.012;4.346;2024-02-26T14:33:00;3.90;;;2.40;;
51987;SDS011;38003;52.012;4.346;2024-02-26T14:35:29;4.20;;;3.00;;
51987;SDS011;38003;52.012;4.346;2024-02-26T14:37:57;3.17;;;2.50;;
51987;SDS011;38003;52.012;4.346;2024-02-26T14:40:27;4.03;;;2.70;;
51987;SDS011;38003;52.012;4.346;2024-02-26T14:42:56;4.07;;;2.57;;
51987;SDS011;38003;52.012;4.346;2024-02-26T14:45:26;4.87;;;2.77;;
51987;SDS011;38003;52.012;4.346;2024-02-26T14:47:54;6.27;;;2.60;;
51987;SDS011;38003;52.012;4.346;2024-02-26T14:50:24;3.40;;;2.80;;
51987;SDS011;38003;52.012;4.346;2024-02-26T14:52:52;5.10;;;3.10;;
51987;SDS011;38003;52.012;4.346;2024-02-26T14:55:21;4.33;;;2.80;;
51987;SDS011;38003;52.012;4.346;2024-02-26T14:57:49;4.07;;;3.17;;